sensor_id;sensor_type;location;lat;lon;timestamp;pressure;altitude;pressure_sealevel;temperature;humidity
41078;BME280;26823;42.662;23.352;2022-12-16T00:01:58;94613.50;;;3.33;100.00
41078;BME280;26823;42.662;23.352;2022-12-16T00:04:24;94613.66;;;3.55;100.00
41078;BME280;26823;42.662;23.352;2022-12-16T00:06:49;94599.91;;;3.34;100.00
41078;BME280;26823;42.662;23.352;2022-12-16T00:09:15;94615.28;;;3.15;100.00
41078;BME280;26823;42.662;23.352;2022-12-16T00:11:40;94614.69;;;3.25;100.00
41078;BME280;26823;42.662;23.352;2022-12-16T00:14:05;94597.28;;;3.22;100.00
41078;BME280;26823;42.662;23.352;2022-12-16T00:16:31;94599.25;;;3.27;100.00
41078;BME280;26823;42.662;23.352;2022-12-16T00:18:56;94619.91;;;3.32;100.00
41078;BME280;26823;42.662;23.352;2022-12-16T00:21:22;94584.06;;;3.16;100.00
41078;BME280;26823;42.662;23.352;2022-12-16T00:23:52;94623.50;;;3.37;100.00
41078;BME280;26823;42.662;23.352;2022-12-16T00:26:18;94589.50;;;3.21;100.00
41078;BME280;26823;42.662;23.352;2022-12-16T00:28:43;94596.19;;;3.35;100.00
41078;BME280;26823;42.662;23.352;2022-12-16T00:31:09;94598.00;;;3.47;100.00
41078;BME280;26823;42.662;23.352;2022-12-16T00:33:34;94606.94;;;3.52;100.00
41078;BME280;26823;42.662;23.352;2022-12-16T00:35:59;94596.84;;;3.42;100.00
41078;BME280;26823;42.662;23.352;2022-12-16T00:38:25;94612.91;;;3.42;100.00
41078;BME280;26823;42.662;23.352;2022-12-16T00:40:51;94623.44;;;3.49;100.00
41078;BME280;26823;42.662;23.352;2022-12-16T00:43:16;94598.56;;;3.49;100.00
41078;BME280;26823;42.662;23.352;2022-12-16T00:45:42;94597.84;;;3.53;100.00
41078;BME280;26823;42.662;23.352;2022-12-16T00:48:09;94613.28;;;3.63;100.00
41078;BME280;26823;42.662;23.352;2022-12-16T00:50:35;94615.69;;;3.65;100.00
41078;BME280;26823;42.662;23.352;2022-12-16T00:53:01;94565.56;;;3.43;100.00
41078;BME280;26823;42.662;23.352;2022-12-16T00:55:27;94606.97;;;3.40;100.00
41078;BME280;26823;42.662;23.352;2022-12-16T00:57:53;94585.34;;;3.42;100.00
41078;BME280;26823;42.662;23.352;2022-12-16T01:00:21;94609.41;;;3.42;100.00
41078;BME280;26823;42.662;23.352;2022-12-16T01:02:48;94591.50;;;3.42;100.00
41078;BME280;26823;42.662;23.352;2022-12-16T01:05:17;94602.06;;;3.49;100.00
41078;BME280;26823;42.662;23.352;2022-12-16T01:07:43;94594.44;;;3.41;100.00
41078;BME280;26823;42.662;23.352;2022-12-16T01:10:09;94600.75;;;3.52;100.00
41078;BME280;26823;42.662;23.352;2022-12-16T01:12:35;94597.84;;;3.53;100.00
41078;BME280;26823;42.662;23.352;2022-12-16T01:15:01;94602.63;;;3.51;100.00
41078;BME280;26823;42.662;23.352;2022-12-16T01:17:27;94583.81;;;3.17;100.00
41078;BME280;26823;42.662;23.352;2022-12-16T01:19:53;94607.97;;;3.22;100.00
41078;BME280;26823;42.662;23.352;2022-12-16T01:22:19;94603.31;;;3.30;100.00
41078;BME280;26823;42.662;23.352;2022-12-16T01:24:45;94614.22;;;3.28;100.00
41078;BME280;26823;42.662;23.352;2022-12-16T01:27:11;94597.47;;;3.33;100.00
41078;BME280;26823;42.662;23.352;2022-12-16T01:29:37;94583.09;;;3.22;100.00
41078;BME280;26823;42.662;23.352;2022-12-16T01:32:03;94583.63;;;3.07;100.00
41078;BME280;26823;42.662;23.352;2022-12-16T01:34:28;94577.19;;;3.20;100.00
41078;BME280;26823;42.662;23.352;2022-12-16T01:36:54;94588.75;;;3.25;100.00
41078;BME280;26823;42.662;23.352;2022-12-16T01:39:19;94580.53;;;3.27;100.00
41078;BME280;26823;42.662;23.352;2022-12-16T01:41:44;94567.97;;;3.28;100.00
41078;BME280;26823;42.662;23.352;2022-12-16T01:44:23;94602.13;;;3.25;100.00
41078;BME280;26823;42.662;23.352;2022-12-16T01:47:02;94567.97;;;3.28;100.00
41078;BME280;26823;42.662;23.352;2022-12-16T01:52:09;94561.81;;;3.27;100.00
41078;BME280;26823;42.662;23.352;2022-12-16T01:54:42;94580.28;;;3.29;100.00
41078;BME280;26823;42.662;23.352;2022-12-16T01:57:12;94575.75;;;3.29;100.00
41078;BME280;26823;42.662;23.352;2022-12-16T01:59:41;94564.41;;;3.10;100.00
41078;BME280;26823;42.662;23.352;2022-12-16T02:02:09;94563.31;;;3.23;100.00
41078;BME280;26823;42.662;23.352;2022-12-16T02:04:36;94594.78;;;3.33;100.00
41078;BME280;26823;42.662;23.352;2022-12-16T02:07:21;94563.63;;;3.38;100.00
41078;BME280;26823;42.662;23.352;2022-12-16T02:09:46;94558.84;;;3.40;100.00
41078;BME280;26823;42.662;23.352;2022-12-16T02:17:27;94552.94;;;3.38;100.00
41078;BME280;26823;42.662;23.352;2022-12-16T02:25:46;94564.59;;;3.49;100.00
41078;BME280;26823;42.662;23.352;2022-12-16T02:34:29;94562.28;;;3.53;100.00
41078;BME280;26823;42.662;23.352;2022-12-16T02:37:13;94528.63;;;3.40;100.00
41078;BME280;26823;42.662;23.352;2022-12-16T02:39:48;94537.69;;;3.39;100.00
41078;BME280;26823;42.662;23.352;2022-12-16T02:42:20;94518.31;;;3.32;100.00
41078;BME280;26823;42.662;23.352;2022-12-16T02:45:03;94551.41;;;3.42;100.00
41078;BME280;26823;42.662;23.352;2022-12-16T02:47:31;94555.78;;;3.49;100.00
41078;BME280;26823;42.662;23.352;2022-12-16T02:49:57;94551.00;;;3.51;100.00
41078;BME280;26823;42.662;23.352;2022-12-16T02:52:28;94578.59;;;3.39;100.00
41078;BME280;26823;42.662;23.352;2022-12-16T02:55:01;94559.88;;;3.39;100.00
41078;BME280;26823;42.662;23.352;2022-12-16T03:00:21;94591.16;;;3.39;100.00
41078;BME280;26823;42.662;23.352;2022-12-16T03:02:54;94575.72;;;3.41;100.00
41078;BME280;26823;42.662;23.352;2022-12-16T03:05:26;94558.75;;;3.35;100.00
41078;BME280;26823;42.662;23.352;2022-12-16T03:07:55;94581.41;;;3.33;100.00
41078;BME280;26823;42.662;23.352;2022-12-16T03:10:27;94574.16;;;3.45;100.00
41078;BME280;26823;42.662;23.352;2022-12-16T03:12:54;94581.50;;;3.50;100.00
41078;BME280;26823;42.662;23.352;2022-12-16T03:15:22;94544.19;;;3.43;100.00
41078;BME280;26823;42.662;23.352;2022-12-16T03:17:49;94562.69;;;3.62;100.00
41078;BME280;26823;42.662;23.352;2022-12-16T03:20:30;94553.75;;;3.39;100.00
41078;BME280;26823;42.662;23.352;2022-12-16T03:23:07;94538.66;;;3.33;100.00
41078;BME280;26823;42.662;23.352;2022-12-16T03:25:36;94546.50;;;3.39;100.00
41078;BME280;26823;42.662;23.352;2022-12-16T03:28:35;94554.16;;;3.48;100.00
41078;BME280;26823;42.662;23.352;2022-12-16T03:31:06;94519.56;;;3.41;100.00
41078;BME280;26823;42.662;23.352;2022-12-16T03:33:42;94540.53;;;3.49;100.00
41078;BME280;26823;42.662;23.352;2022-12-16T03:36:17;94549.75;;;3.24;100.00
41078;BME280;26823;42.662;23.352;2022-12-16T03:38:45;94535.13;;;3.15;100.00
41078;BME280;26823;42.662;23.352;2022-12-16T03:41:12;94552.41;;;3.24;100.00
41078;BME280;26823;42.662;23.352;2022-12-16T03:43:38;94546.25;;;3.24;100.00
41078;BME280;26823;42.662;23.352;2022-12-16T03:46:05;94582.38;;;3.26;100.00
41078;BME280;26823;42.662;23.352;2022-12-16T03:48:32;94562.28;;;3.24;100.00
41078;BME280;26823;42.662;23.352;2022-12-16T03:50:58;94569.69;;;3.34;100.00
41078;BME280;26823;42.662;23.352;2022-12-16T03:53:23;94563.19;;;3.30;100.00
41078;BME280;26823;42.662;23.352;2022-12-16T03:55:52;94583.63;;;3.36;100.00
41078;BME280;26823;42.662;23.352;2022-12-16T03:58:17;94566.31;;;3.38;100.00
41078;BME280;26823;42.662;23.352;2022-12-16T04:00:43;94590.06;;;3.23;100.00
41078;BME280;26823;42.662;23.352;2022-12-16T04:03:08;94583.53;;;3.31;100.00
41078;BME280;26823;42.662;23.352;2022-12-16T04:05:34;94590.72;;;3.30;100.00
41078;BME280;26823;42.662;23.352;2022-12-16T04:07:59;94580.38;;;3.34;100.00
41078;BME280;26823;42.662;23.352;2022-12-16T04:10:25;94567.34;;;3.37;100.00
41078;BME280;26823;42.662;23.352;2022-12-16T04:13:09;94562.94;;;3.31;100.00
41078;BME280;26823;42.662;23.352;2022-12-16T04:15:54;94579.19;;;3.41;100.00
41078;BME280;26823;42.662;23.352;2022-12-16T04:18:39;94561.41;;;3.35;100.00
41078;BME280;26823;42.662;23.352;2022-12-16T04:21:24;94586.34;;;3.53;100.00
41078;BME280;26823;42.662;23.352;2022-12-16T04:24:10;94596.09;;;3.59;100.00
41078;BME280;26823;42.662;23.352;2022-12-16T04:26:43;94568.03;;;3.62;100.00
41078;BME280;26823;42.662;23.352;2022-12-16T04:29:27;94557.59;;;3.60;100.00
41078;BME280;26823;42.662;23.352;2022-12-16T04:31:53;94555.38;;;3.57;100.00
41078;BME280;26823;42.662;23.352;2022-12-16T04:34:20;94539.75;;;3.49;100.00
41078;BME280;26823;42.662;23.352;2022-12-16T04:36:58;94576.75;;;3.69;100.00
41078;BME280;26823;42.662;23.352;2022-12-16T04:39:42;94571.84;;;3.66;100.00
41078;BME280;26823;42.662;23.352;2022-12-16T04:42:27;94564.22;;;3.57;100.00
41078;BME280;26823;42.662;23.352;2022-12-16T04:45:10;94556.13;;;3.69;100.00
41078;BME280;26823;42.662;23.352;2022-12-16T04:47:54;94540.81;;;3.65;100.00
41078;BME280;26823;42.662;23.352;2022-12-16T04:50:38;94556.84;;;3.65;100.00
41078;BME280;26823;42.662;23.352;2022-12-16T04:53:24;94559.41;;;3.71;100.00
41078;BME280;26823;42.662;23.352;2022-12-16T04:56:08;94571.31;;;3.64;100.00
41078;BME280;26823;42.662;23.352;2022-12-16T04:58:52;94577.81;;;3.56;100.00
41078;BME280;26823;42.662;23.352;2022-12-16T05:01:42;94560.59;;;3.64;100.00
41078;BME280;26823;42.662;23.352;2022-12-16T05:04:27;94559.41;;;3.42;100.00
41078;BME280;26823;42.662;23.352;2022-12-16T05:07:18;94569.97;;;3.49;100.00
41078;BME280;26823;42.662;23.352;2022-12-16T05:10:09;94549.84;;;3.47;100.00
41078;BME280;26823;42.662;23.352;2022-12-16T05:13:09;94569.16;;;3.49;100.00
41078;BME280;26823;42.662;23.352;2022-12-16T05:15:53;94571.50;;;3.45;100.00
41078;BME280;26823;42.662;23.352;2022-12-16T05:18:37;94560.88;;;3.33;100.00
41078;BME280;26823;42.662;23.352;2022-12-16T05:21:21;94580.56;;;3.44;100.00
41078;BME280;26823;42.662;23.352;2022-12-16T05:24:05;94575.97;;;3.56;100.00
41078;BME280;26823;42.662;23.352;2022-12-16T05:26:48;94580.84;;;3.59;100.00
41078;BME280;26823;42.662;23.352;2022-12-16T05:29:32;94591.69;;;3.53;100.00
41078;BME280;26823;42.662;23.352;2022-12-16T05:32:16;94575.88;;;3.51;100.00
41078;BME280;26823;42.662;23.352;2022-12-16T05:35:00;94592.56;;;3.41;100.00
41078;BME280;26823;42.662;23.352;2022-12-16T05:37:45;94598.84;;;3.35;100.00
41078;BME280;26823;42.662;23.352;2022-12-16T05:40:29;94628.84;;;3.37;100.00
41078;BME280;26823;42.662;23.352;2022-12-16T05:43:12;94614.09;;;3.23;100.00
41078;BME280;26823;42.662;23.352;2022-12-16T05:45:56;94648.16;;;3.28;100.00
41078;BME280;26823;42.662;23.352;2022-12-16T05:48:40;94573.81;;;3.13;100.00
41078;BME280;26823;42.662;23.352;2022-12-16T05:51:24;94580.97;;;2.95;100.00
41078;BME280;26823;42.662;23.352;2022-12-16T05:54:08;94579.38;;;2.82;100.00
41078;BME280;26823;42.662;23.352;2022-12-16T05:56:52;94579.66;;;3.09;100.00
41078;BME280;26823;42.662;23.352;2022-12-16T05:59:36;94609.00;;;3.21;100.00
41078;BME280;26823;42.662;23.352;2022-12-16T06:02:20;94593.03;;;3.09;100.00
41078;BME280;26823;42.662;23.352;2022-12-16T06:05:04;94628.56;;;3.22;100.00
41078;BME280;26823;42.662;23.352;2022-12-16T06:07:55;94621.28;;;3.34;100.00
41078;BME280;26823;42.662;23.352;2022-12-16T06:10:39;94641.38;;;3.37;100.00
41078;BME280;26823;42.662;23.352;2022-12-16T06:13:23;94640.81;;;3.35;100.00
41078;BME280;26823;42.662;23.352;2022-12-16T06:16:07;94606.78;;;3.30;100.00
41078;BME280;26823;42.662;23.352;2022-12-16T06:18:51;94622.53;;;3.43;100.00
41078;BME280;26823;42.662;23.352;2022-12-16T06:21:35;94659.03;;;3.50;100.00
41078;BME280;26823;42.662;23.352;2022-12-16T06:24:19;94654.34;;;3.57;100.00
41078;BME280;26823;42.662;23.352;2022-12-16T06:27:03;94659.47;;;3.58;100.00
41078;BME280;26823;42.662;23.352;2022-12-16T06:29:47;94636.97;;;3.42;100.00
41078;BME280;26823;42.662;23.352;2022-12-16T06:32:31;94618.28;;;3.31;100.00
41078;BME280;26823;42.662;23.352;2022-12-16T06:35:15;94642.59;;;3.58;100.00
41078;BME280;26823;42.662;23.352;2022-12-16T06:37:58;94644.22;;;3.59;100.00
41078;BME280;26823;42.662;23.352;2022-12-16T06:40:42;94651.13;;;3.55;100.00
41078;BME280;26823;42.662;23.352;2022-12-16T06:43:26;94621.91;;;3.53;100.00
41078;BME280;26823;42.662;23.352;2022-12-16T06:46:10;94641.72;;;3.40;100.00
41078;BME280;26823;42.662;23.352;2022-12-16T06:48:54;94628.56;;;3.22;100.00
41078;BME280;26823;42.662;23.352;2022-12-16T06:51:38;94601.63;;;3.40;100.00
41078;BME280;26823;42.662;23.352;2022-12-16T06:54:22;94644.50;;;3.46;100.00
41078;BME280;26823;42.662;23.352;2022-12-16T06:57:06;94621.38;;;3.39;100.00
41078;BME280;26823;42.662;23.352;2022-12-16T06:59:50;94612.97;;;3.19;100.00
41078;BME280;26823;42.662;23.352;2022-12-16T07:02:34;94601.50;;;3.47;100.00
41078;BME280;26823;42.662;23.352;2022-12-16T07:05:18;94653.06;;;3.59;100.00
41078;BME280;26823;42.662;23.352;2022-12-16T07:08:02;94625.00;;;3.62;100.00
41078;BME280;26823;42.662;23.352;2022-12-16T07:10:46;94648.91;;;3.52;100.00
41078;BME280;26823;42.662;23.352;2022-12-16T07:13:30;94643.41;;;3.30;100.00
41078;BME280;26823;42.662;23.352;2022-12-16T07:16:16;94613.69;;;3.43;100.00
41078;BME280;26823;42.662;23.352;2022-12-16T07:18:59;94658.88;;;3.56;100.00
41078;BME280;26823;42.662;23.352;2022-12-16T07:21:43;94631.00;;;3.52;100.00
41078;BME280;26823;42.662;23.352;2022-12-16T07:24:27;94656.31;;;3.62;100.00
41078;BME280;26823;42.662;23.352;2022-12-16T07:27:11;94629.81;;;3.60;100.00
41078;BME280;26823;42.662;23.352;2022-12-16T07:30:09;94664.69;;;3.65;100.00
41078;BME280;26823;42.662;23.352;2022-12-16T07:32:54;94639.06;;;3.69;100.00
41078;BME280;26823;42.662;23.352;2022-12-16T07:35:41;94641.53;;;3.88;100.00
41078;BME280;26823;42.662;23.352;2022-12-16T07:38:26;94650.78;;;3.97;100.00
41078;BME280;26823;42.662;23.352;2022-12-16T07:41:10;94644.31;;;4.10;100.00
41078;BME280;26823;42.662;23.352;2022-12-16T07:43:54;94584.34;;;3.77;100.00
41078;BME280;26823;42.662;23.352;2022-12-16T07:46:38;94653.00;;;4.34;100.00
41078;BME280;26823;42.662;23.352;2022-12-16T07:49:22;94645.88;;;4.40;100.00
41078;BME280;26823;42.662;23.352;2022-12-16T07:52:06;94647.84;;;4.45;100.00
41078;BME280;26823;42.662;23.352;2022-12-16T07:54:49;94662.03;;;4.45;100.00
41078;BME280;26823;42.662;23.352;2022-12-16T07:57:33;94669.09;;;4.51;100.00
41078;BME280;26823;42.662;23.352;2022-12-16T08:00:17;94646.91;;;4.56;100.00
41078;BME280;26823;42.662;23.352;2022-12-16T08:03:01;94640.03;;;4.60;100.00
41078;BME280;26823;42.662;23.352;2022-12-16T08:05:45;94683.88;;;4.54;100.00
41078;BME280;26823;42.662;23.352;2022-12-16T08:08:29;94665.03;;;4.66;100.00
41078;BME280;26823;42.662;23.352;2022-12-16T08:11:13;94656.00;;;4.72;100.00
41078;BME280;26823;42.662;23.352;2022-12-16T08:13:57;94635.81;;;4.64;100.00
41078;BME280;26823;42.662;23.352;2022-12-16T08:16:41;94682.94;;;4.99;100.00
41078;BME280;26823;42.662;23.352;2022-12-16T08:19:25;94664.72;;;5.01;100.00
41078;BME280;26823;42.662;23.352;2022-12-16T08:22:09;94663.66;;;5.02;100.00
41078;BME280;26823;42.662;23.352;2022-12-16T08:24:53;94651.31;;;5.01;100.00
41078;BME280;26823;42.662;23.352;2022-12-16T08:27:37;94680.34;;;5.27;100.00
41078;BME280;26823;42.662;23.352;2022-12-16T08:30:21;94605.75;;;4.79;100.00
41078;BME280;26823;42.662;23.352;2022-12-16T08:33:05;94676.00;;;5.43;100.00
41078;BME280;26823;42.662;23.352;2022-12-16T08:35:49;94640.19;;;5.32;100.00
41078;BME280;26823;42.662;23.352;2022-12-16T08:38:33;94671.22;;;5.45;100.00
41078;BME280;26823;42.662;23.352;2022-12-16T08:41:17;94623.16;;;5.43;100.00
41078;BME280;26823;42.662;23.352;2022-12-16T08:44:01;94638.03;;;5.78;100.00
41078;BME280;26823;42.662;23.352;2022-12-16T08:46:45;94611.34;;;5.94;100.00
41078;BME280;26823;42.662;23.352;2022-12-16T08:49:29;94656.59;;;6.07;100.00
41078;BME280;26823;42.662;23.352;2022-12-16T08:52:13;94633.53;;;6.39;100.00
41078;BME280;26823;42.662;23.352;2022-12-16T08:54:57;94620.63;;;6.41;100.00
41078;BME280;26823;42.662;23.352;2022-12-16T08:57:41;94639.53;;;6.94;100.00
41078;BME280;26823;42.662;23.352;2022-12-16T09:00:25;94620.53;;;7.06;98.01
41078;BME280;26823;42.662;23.352;2022-12-16T09:03:16;94636.72;;;7.16;96.18
41078;BME280;26823;42.662;23.352;2022-12-16T09:06:00;94608.00;;;6.84;96.71
41078;BME280;26823;42.662;23.352;2022-12-16T09:08:44;94614.00;;;6.96;97.93
41078;BME280;26823;42.662;23.352;2022-12-16T09:11:28;94591.66;;;7.44;98.11
41078;BME280;26823;42.662;23.352;2022-12-16T09:14:12;94614.91;;;7.86;94.45
41078;BME280;26823;42.662;23.352;2022-12-16T09:16:56;94613.03;;;7.97;94.29
41078;BME280;26823;42.662;23.352;2022-12-16T09:19:40;94604.47;;;8.41;91.36
41078;BME280;26823;42.662;23.352;2022-12-16T09:22:24;94597.41;;;7.89;91.74
41078;BME280;26823;42.662;23.352;2022-12-16T09:25:08;94601.75;;;8.26;91.34
41078;BME280;26823;42.662;23.352;2022-12-16T09:27:52;94595.03;;;8.39;90.06
41078;BME280;26823;42.662;23.352;2022-12-16T09:30:40;94604.47;;;8.31;90.21
41078;BME280;26823;42.662;23.352;2022-12-16T09:33:24;94589.34;;;8.92;88.56
41078;BME280;26823;42.662;23.352;2022-12-16T09:36:08;94562.13;;;8.42;90.45
41078;BME280;26823;42.662;23.352;2022-12-16T09:38:52;94568.00;;;9.06;88.10
41078;BME280;26823;42.662;23.352;2022-12-16T09:41:44;94569.78;;;9.26;85.46
41078;BME280;26823;42.662;23.352;2022-12-16T09:47:37;94545.50;;;9.76;82.13
41078;BME280;26823;42.662;23.352;2022-12-16T09:50:26;94577.78;;;9.96;82.46
41078;BME280;26823;42.662;23.352;2022-12-16T09:53:17;94562.22;;;10.23;82.13
41078;BME280;26823;42.662;23.352;2022-12-16T09:56:05;94578.34;;;10.97;78.82
41078;BME280;26823;42.662;23.352;2022-12-16T09:58:53;94547.19;;;11.48;75.96
41078;BME280;26823;42.662;23.352;2022-12-16T10:01:41;94582.81;;;12.37;71.02
41078;BME280;26823;42.662;23.352;2022-12-16T10:04:26;94550.72;;;12.25;71.47
41078;BME280;26823;42.662;23.352;2022-12-16T10:07:19;94548.38;;;12.18;70.96
41078;BME280;26823;42.662;23.352;2022-12-16T10:11:17;94575.16;;;12.58;69.84
41078;BME280;26823;42.662;23.352;2022-12-16T10:13:39;94558.66;;;13.15;67.63
41078;BME280;26823;42.662;23.352;2022-12-16T10:17:02;94567.25;;;14.15;61.55
41078;BME280;26823;42.662;23.352;2022-12-16T10:26:07;94574.03;;;18.65;48.54
41078;BME280;26823;42.662;23.352;2022-12-16T10:29:12;94541.09;;;20.72;40.76
41078;BME280;26823;42.662;23.352;2022-12-16T10:32:21;94542.78;;;22.36;37.42
41078;BME280;26823;42.662;23.352;2022-12-16T10:35:22;94545.00;;;22.30;37.40
41078;BME280;26823;42.662;23.352;2022-12-16T10:38:23;94520.13;;;20.39;40.51
41078;BME280;26823;42.662;23.352;2022-12-16T10:41:08;94529.69;;;20.57;40.59
41078;BME280;26823;42.662;23.352;2022-12-16T10:43:54;94533.72;;;22.94;34.88
41078;BME280;26823;42.662;23.352;2022-12-16T10:46:40;94538.00;;;23.81;33.70
41078;BME280;26823;42.662;23.352;2022-12-16T10:49:23;94536.00;;;23.32;34.35
41078;BME280;26823;42.662;23.352;2022-12-16T10:52:11;94546.09;;;25.49;31.13
41078;BME280;26823;42.662;23.352;2022-12-16T11:03:33;94523.97;;;20.09;40.92
41078;BME280;26823;42.662;23.352;2022-12-16T11:06:39;94554.03;;;19.81;42.08
41078;BME280;26823;42.662;23.352;2022-12-16T11:09:33;94502.25;;;19.17;43.42
41078;BME280;26823;42.662;23.352;2022-12-16T11:12:30;94536.09;;;19.34;42.89
41078;BME280;26823;42.662;23.352;2022-12-16T11:15:19;94516.94;;;20.65;41.04
41078;BME280;26823;42.662;23.352;2022-12-16T11:18:23;94531.75;;;20.19;40.31
41078;BME280;26823;42.662;23.352;2022-12-16T11:21:19;94529.31;;;20.87;39.91
41078;BME280;26823;42.662;23.352;2022-12-16T11:27:02;94515.03;;;21.74;37.76
41078;BME280;26823;42.662;23.352;2022-12-16T11:29:56;94516.06;;;21.53;39.13
41078;BME280;26823;42.662;23.352;2022-12-16T11:32:47;94506.69;;;22.80;35.63
41078;BME280;26823;42.662;23.352;2022-12-16T11:35:35;94520.47;;;21.70;38.27
41078;BME280;26823;42.662;23.352;2022-12-16T11:38:27;94517.03;;;25.29;31.60
41078;BME280;26823;42.662;23.352;2022-12-16T11:41:29;94525.59;;;25.16;31.26
41078;BME280;26823;42.662;23.352;2022-12-16T11:44:21;94504.72;;;26.23;29.30
41078;BME280;26823;42.662;23.352;2022-12-16T11:47:25;94511.50;;;25.73;31.11
41078;BME280;26823;42.662;23.352;2022-12-16T11:50:16;94469.47;;;23.37;34.54
41078;BME280;26823;42.662;23.352;2022-12-16T11:53:04;94490.56;;;23.49;34.22
41078;BME280;26823;42.662;23.352;2022-12-16T11:55:51;94497.06;;;23.37;34.33
41078;BME280;26823;42.662;23.352;2022-12-16T11:58:43;94490.78;;;21.63;38.37
41078;BME280;26823;42.662;23.352;2022-12-16T12:04:15;94465.03;;;23.28;34.87
41078;BME280;26823;42.662;23.352;2022-12-16T12:10:42;94470.00;;;22.76;36.10
41078;BME280;26823;42.662;23.352;2022-12-16T12:13:50;94474.44;;;22.61;36.54
41078;BME280;26823;42.662;23.352;2022-12-16T12:17:37;94477.22;;;20.91;40.12
41078;BME280;26823;42.662;23.352;2022-12-16T12:23:05;94470.03;;;21.02;40.28
41078;BME280;26823;42.662;23.352;2022-12-16T12:28:47;94462.88;;;20.69;41.67
41078;BME280;26823;42.662;23.352;2022-12-16T12:34:30;94429.88;;;19.31;44.87
41078;BME280;26823;42.662;23.352;2022-12-16T12:37:27;94466.59;;;20.32;42.55
41078;BME280;26823;42.662;23.352;2022-12-16T12:46:48;94450.00;;;20.29;42.66
41078;BME280;26823;42.662;23.352;2022-12-16T12:49:40;94447.63;;;19.74;43.38
41078;BME280;26823;42.662;23.352;2022-12-16T12:56:16;94458.19;;;19.47;44.93
41078;BME280;26823;42.662;23.352;2022-12-16T12:59:07;94450.88;;;18.56;46.82
41078;BME280;26823;42.662;23.352;2022-12-16T13:01:55;94432.41;;;20.30;43.62
41078;BME280;26823;42.662;23.352;2022-12-16T13:04:40;94431.72;;;20.77;41.95
41078;BME280;26823;42.662;23.352;2022-12-16T13:07:25;94452.22;;;20.23;42.96
41078;BME280;26823;42.662;23.352;2022-12-16T13:10:29;94458.50;;;17.44;50.84
41078;BME280;26823;42.662;23.352;2022-12-16T13:16:10;94437.56;;;16.80;53.84
41078;BME280;26823;42.662;23.352;2022-12-16T13:22:35;94455.25;;;15.82;58.39
41078;BME280;26823;42.662;23.352;2022-12-16T13:25:43;94403.53;;;14.67;63.17
41078;BME280;26823;42.662;23.352;2022-12-16T13:28:38;94403.53;;;14.67;63.49
41078;BME280;26823;42.662;23.352;2022-12-16T13:31:24;94432.25;;;14.50;64.89
41078;BME280;26823;42.662;23.352;2022-12-16T13:37:01;94426.63;;;14.15;66.83
41078;BME280;26823;42.662;23.352;2022-12-16T13:40:20;94428.28;;;14.25;66.83
41078;BME280;26823;42.662;23.352;2022-12-16T13:43:02;94432.00;;;13.84;69.47
41078;BME280;26823;42.662;23.352;2022-12-16T13:48:47;94450.47;;;13.96;69.87
41078;BME280;26823;42.662;23.352;2022-12-16T13:57:17;94458.00;;;13.76;70.68
41078;BME280;26823;42.662;23.352;2022-12-16T14:00:03;94453.84;;;13.28;72.27
41078;BME280;26823;42.662;23.352;2022-12-16T14:02:49;94441.13;;;13.01;73.04
41078;BME280;26823;42.662;23.352;2022-12-16T14:05:36;94466.44;;;13.24;72.79
41078;BME280;26823;42.662;23.352;2022-12-16T14:08:25;94486.34;;;13.05;73.10
41078;BME280;26823;42.662;23.352;2022-12-16T14:11:18;94493.69;;;13.19;73.10
41078;BME280;26823;42.662;23.352;2022-12-16T14:14:34;94475.38;;;12.83;73.72
41078;BME280;26823;42.662;23.352;2022-12-16T14:17:44;94439.78;;;12.29;74.95
41078;BME280;26823;42.662;23.352;2022-12-16T14:20:50;94489.47;;;12.85;74.82
41078;BME280;26823;42.662;23.352;2022-12-16T14:23:41;94489.38;;;12.76;75.01
41078;BME280;26823;42.662;23.352;2022-12-16T14:26:26;94483.63;;;12.64;75.38
41078;BME280;26823;42.662;23.352;2022-12-16T14:29:27;94487.38;;;12.35;76.93
41078;BME280;26823;42.662;23.352;2022-12-16T14:32:32;94504.28;;;12.46;76.89
41078;BME280;26823;42.662;23.352;2022-12-16T14:35:23;94504.47;;;12.35;77.11
41078;BME280;26823;42.662;23.352;2022-12-16T14:41:03;94508.94;;;12.26;78.63
41078;BME280;26823;42.662;23.352;2022-12-16T14:43:47;94494.09;;;12.04;79.38
41078;BME280;26823;42.662;23.352;2022-12-16T14:46:31;94486.66;;;11.96;79.62
41078;BME280;26823;42.662;23.352;2022-12-16T14:49:20;94462.00;;;11.93;79.75
41078;BME280;26823;42.662;23.352;2022-12-16T14:52:21;94509.28;;;12.05;79.88
41078;BME280;26823;42.662;23.352;2022-12-16T14:55:19;94477.69;;;11.96;80.35
41078;BME280;26823;42.662;23.352;2022-12-16T14:58:13;94489.63;;;11.95;80.83
41078;BME280;26823;42.662;23.352;2022-12-16T15:01:01;94494.94;;;11.67;81.88
41078;BME280;26823;42.662;23.352;2022-12-16T15:03:48;94498.56;;;11.76;81.68
41078;BME280;26823;42.662;23.352;2022-12-16T15:06:33;94484.88;;;11.86;80.83
41078;BME280;26823;42.662;23.352;2022-12-16T15:09:23;94485.97;;;11.85;80.85
41078;BME280;26823;42.662;23.352;2022-12-16T15:12:09;94490.16;;;11.78;81.92
41078;BME280;26823;42.662;23.352;2022-12-16T15:14:55;94481.72;;;11.79;81.33
41078;BME280;26823;42.662;23.352;2022-12-16T15:17:43;94521.13;;;11.71;81.63
41078;BME280;26823;42.662;23.352;2022-12-16T15:20:32;94450.06;;;11.61;81.47
41078;BME280;26823;42.662;23.352;2022-12-16T15:23:21;94504.28;;;11.74;81.08
41078;BME280;26823;42.662;23.352;2022-12-16T15:26:07;94479.16;;;11.69;80.65
41078;BME280;26823;42.662;23.352;2022-12-16T15:28:51;94515.69;;;11.71;81.08
41078;BME280;26823;42.662;23.352;2022-12-16T15:31:38;94503.31;;;11.65;81.40
41078;BME280;26823;42.662;23.352;2022-12-16T15:37:22;94514.09;;;11.70;79.69
41078;BME280;26823;42.662;23.352;2022-12-16T15:40:37;94488.19;;;11.64;79.31
41078;BME280;26823;42.662;23.352;2022-12-16T15:43:31;94475.38;;;11.51;79.19